createdAt,value
2023-03-01T00:03:50.492Z,271.65957
2023-03-01T00:08:52.069Z,284.33149
2023-03-01T00:13:53.676Z,278.78261
2023-03-01T00:18:55.430Z,276.97297
2023-03-01T00:23:56.980Z,273.41176
2023-03-01T00:28:58.565Z,264.83333
2023-03-01T00:34:00.151Z,276.97297
2023-03-01T00:39:01.694Z,275.1828
2023-03-01T00:44:03.238Z,256.69036
2023-03-01T00:49:04.864Z,259.89744
2023-03-01T00:54:06.599Z,253.54774
2023-03-01T00:59:08.119Z,247.44828
2023-03-01T01:04:09.750Z,245.96078
2023-03-01T01:09:11.219Z,248.9505
2023-03-01T01:14:12.673Z,240.15385
2023-03-01T01:19:14.234Z,233.20188
2023-03-01T01:24:15.737Z,226.56881
2023-03-01T01:29:17.201Z,221.47748
2023-03-01T01:34:18.704Z,220.23318
2023-03-01T01:39:20.259Z,217.77778
2023-03-01T01:44:21.754Z,216.56637
2023-03-01T01:49:23.240Z,211.82609
2023-03-01T01:54:24.731Z,205.01695
2023-03-01T01:59:26.251Z,201.74059
2023-03-01T02:04:27.791Z,201.74059
2023-03-01T02:09:29.287Z,201.74059
2023-03-01T02:14:30.825Z,200.66667
2023-03-01T02:19:32.347Z,195.42857
2023-03-01T02:24:34.742Z,190.4
2023-03-01T02:29:36.534Z,186.51969
2023-03-01T02:34:38.080Z,184.625
2023-03-01T02:39:39.614Z,181.83784
2023-03-01T02:44:41.037Z,180.01533
2023-03-01T02:49:42.533Z,184.625
2023-03-01T02:54:44.147Z,183.68872
2023-03-01T02:59:45.646Z,181.83784
2023-03-01T03:04:47.196Z,179.1145
2023-03-01T03:09:48.688Z,178.22053
2023-03-01T03:14:50.136Z,174.71161
2023-03-01T03:19:51.896Z,179.1145
2023-03-01T03:24:53.346Z,176.45283
2023-03-01T03:29:54.803Z,175.57895
2023-03-01T03:34:56.273Z,173.85075
2023-03-01T03:39:57.710Z,170.47059
2023-03-01T03:44:59.230Z,172.14815
2023-03-01T03:50:00.869Z,172.14815
2023-03-01T03:55:02.392Z,172.99628
2023-03-01T04:00:03.958Z,169.64103
2023-03-01T04:05:05.620Z,167.18841
2023-03-01T04:10:07.167Z,166.38267
2023-03-01T04:15:08.720Z,167.18841
2023-03-01T04:20:10.537Z,166.38267
2023-03-01T04:25:12.161Z,168.81752
2023-03-01T04:30:13.688Z,172.99628
2023-03-01T04:35:15.209Z,175.57895
2023-03-01T04:40:16.743Z,178.22053
2023-03-01T04:45:18.280Z,180.01533
2023-03-01T04:50:19.851Z,181.83784
2023-03-01T04:55:21.347Z,186.51969
2023-03-01T05:00:22.873Z,180.01533
2023-03-01T05:05:24.492Z,186.51969
2023-03-01T05:10:26.241Z,181.83784
2023-03-01T05:15:27.797Z,180.01533
2023-03-01T05:20:29.229Z,173.85075
2023-03-01T05:25:30.704Z,164.78853
2023-03-01T05:30:32.191Z,160.90141
2023-03-01T05:35:33.917Z,169.64103
2023-03-01T05:40:35.475Z,158.63415
2023-03-01T05:45:37.163Z,162.43972
2023-03-01T05:50:38.735Z,164.78853
2023-03-01T05:55:40.292Z,166.38267
2023-03-01T06:00:41.861Z,170.47059
2023-03-01T06:05:43.633Z,166.38267
2023-03-01T06:10:45.189Z,161.66784
2023-03-01T06:15:46.771Z,160.90141
2023-03-01T06:20:48.574Z,164
2023-03-01T06:25:50.108Z,161.66784
2023-03-01T06:30:51.664Z,162.43972
2023-03-01T06:35:53.433Z,159.38462
2023-03-01T06:40:55.114Z,159.38462
2023-03-01T06:45:56.565Z,163.21708
2023-03-01T06:50:58.067Z,157.88889
2023-03-01T06:55:59.500Z,160.90141
2023-03-01T07:01:01.029Z,157.14879
2023-03-01T07:06:02.549Z,168.81752
2023-03-01T07:11:03.976Z,165.58273
2023-03-01T07:16:05.651Z,157.14879
2023-03-01T07:21:07.308Z,164.78853
2023-03-01T07:26:08.939Z,157.88889
2023-03-01T07:31:10.535Z,161.66784
2023-03-01T07:36:12.081Z,166.38267
2023-03-01T07:41:13.534Z,164
2023-03-01T07:46:15.060Z,170.47059
2023-03-01T07:51:16.558Z,163.21708
2023-03-01T07:56:18.006Z,167.18841
2023-03-01T08:01:19.492Z,169.64103
2023-03-01T08:06:21.081Z,150.71141
2023-03-01T08:11:22.569Z,166.38267
2023-03-01T08:16:24.147Z,168.81752
2023-03-01T08:21:25.689Z,175.57895
2023-03-01T08:26:27.165Z,203.91561
2023-03-01T08:31:28.656Z,231.85047
2023-03-01T08:36:30.616Z,224
2023-03-01T08:41:32.343Z,225.27854
2023-03-01T08:46:34.309Z,288.13408
2023-03-01T08:51:35.984Z,256.69036
2023-03-01T08:56:37.464Z,308.49704
2023-03-01T09:01:38.992Z,319.60976
2023-03-01T09:06:40.502Z,319.60976
2023-03-01T09:11:42.025Z,390.37681
2023-03-01T09:16:43.718Z,417.84615
2023-03-01T09:21:45.323Z,368.82759
2023-03-01T09:26:46.824Z,374.76923
2023-03-01T09:31:48.421Z,346.61438
2023-03-01T09:36:49.971Z,377.80282
2023-03-01T09:41:51.455Z,326.6087
2023-03-01T09:46:53.112Z,321.91411
2023-03-01T09:51:54.828Z,338.87179
2023-03-01T09:56:56.303Z,354.66667
2023-03-01T10:01:57.794Z,354.66667
2023-03-01T10:06:59.469Z,344
2023-03-01T10:12:00.908Z,341.41935
2023-03-01T10:17:02.508Z,312.86228
2023-03-01T10:22:03.986Z,363.04762
2023-03-01T10:27:05.443Z,368.82759
2023-03-01T10:32:07.041Z,396.94118
2023-03-01T10:37:08.645Z,346.61438
2023-03-01T10:42:10.243Z,319.60976
2023-03-01T10:47:11.698Z,310.66667
2023-03-01T10:52:13.171Z,354.66667
2023-03-01T10:57:14.662Z,390.37681
2023-03-01T11:02:24.573Z,414.22901
2023-03-01T11:07:26.687Z,410.66667
2023-03-01T11:12:28.157Z,432.88889
2023-03-01T11:17:30.018Z,403.70149
2023-03-01T11:22:32.102Z,403.70149
2023-03-01T11:27:33.760Z,414.22901
2023-03-01T11:32:35.397Z,403.70149
2023-03-01T11:37:37.045Z,440.77419
2023-03-01T11:42:38.749Z,403.70149
2023-03-01T11:47:40.501Z,514.37037
2023-03-01T11:52:42.121Z,466.0339
2023-03-01T11:57:44.347Z,489.13274
2023-03-01T12:02:45.914Z,461.64706
2023-03-01T12:07:47.444Z,470.49573
2023-03-01T12:12:48.910Z,479.65217
2023-03-01T12:17:50.366Z,484.35088
2023-03-01T12:22:52.057Z,470.49573
2023-03-01T12:27:53.522Z,509.13761
2023-03-01T12:32:55.231Z,410.66667
2023-03-01T12:37:56.906Z,475.03448
2023-03-01T12:42:58.526Z,436.8
2023-03-01T12:48:00.073Z,475.03448
2023-03-01T12:53:01.749Z,432.88889
2023-03-01T12:58:03.342Z,436.8
2023-03-01T13:03:04.826Z,436.8
2023-03-01T13:08:06.326Z,466.0339
2023-03-01T13:13:07.898Z,440.77419
2023-03-01T13:18:09.438Z,421.51938
2023-03-01T13:23:10.921Z,414.22901
2023-03-01T13:28:12.404Z,417.84615
2023-03-01T13:33:13.950Z,368.82759
2023-03-01T13:38:15.452Z,400.2963
2023-03-01T13:43:16.997Z,436.8
2023-03-01T13:48:18.497Z,371.77778
2023-03-01T13:53:20.047Z,390.37681
2023-03-01T13:58:21.523Z,338.87179
2023-03-01T14:03:23.106Z,341.41935
2023-03-01T14:08:24.728Z,317.33333
2023-03-01T14:13:26.216Z,312.86228
2023-03-01T14:18:27.772Z,321.91411
2023-03-01T14:23:29.294Z,319.60976
2023-03-01T14:28:30.811Z,324.24691
2023-03-01T14:33:32.324Z,276.97297
2023-03-01T14:38:33.805Z,275.1828
2023-03-01T14:43:35.273Z,282.46154
2023-03-01T14:48:36.812Z,298.02299
2023-03-01T14:53:50.350Z,269.92593
2023-03-01T14:58:52.438Z,282.46154
2023-03-01T15:03:53.969Z,294
2023-03-01T15:08:55.586Z,286.22222
2023-03-01T15:13:57.166Z,268.21053
2023-03-01T15:18:58.764Z,261.52577
2023-03-01T15:24:00.282Z,247.44828
2023-03-01T15:29:01.808Z,250.46766
2023-03-01T15:34:03.246Z,248.9505
2023-03-01T15:39:04.787Z,227.87097
2023-03-01T15:44:06.375Z,219
2023-03-01T15:49:07.842Z,234.56604
2023-03-01T15:54:09.370Z,237.33333
2023-03-01T15:59:11.016Z,241.58454
2023-03-01T16:04:12.576Z,240.15385
2023-03-01T16:09:14.060Z,225.27854
2023-03-01T16:14:15.601Z,226.56881
2023-03-01T16:19:17.090Z,225.27854
2023-03-01T16:24:18.593Z,207.24786
2023-03-01T16:29:20.103Z,222.73303
2023-03-01T16:34:21.614Z,214.17544
2023-03-01T16:39:23.100Z,214.17544
2023-03-01T16:44:24.692Z,211.82609
2023-03-01T16:49:26.225Z,207.24786
2023-03-01T16:54:27.677Z,207.24786
2023-03-01T16:59:29.218Z,202.82353
2023-03-01T17:04:30.772Z,206.12766
2023-03-01T17:09:32.355Z,197.49794
2023-03-01T17:14:33.850Z,210.66667
2023-03-01T17:19:35.329Z,219
2023-03-01T17:24:36.821Z,206.12766
2023-03-01T17:29:38.297Z,226.56881
2023-03-01T17:34:39.798Z,224
2023-03-01T17:39:41.504Z,235.94313
2023-03-01T17:44:43.940Z,234.56604
2023-03-01T17:49:45.534Z,225.27854
2023-03-01T17:54:47.008Z,219
2023-03-01T17:59:48.543Z,226.56881
2023-03-01T18:04:50.058Z,235.94313
2023-03-01T18:09:51.756Z,227.87097
2023-03-01T18:14:53.177Z,237.33333
2023-03-01T18:19:54.696Z,235.94313
2023-03-01T18:24:56.268Z,252
2023-03-01T18:29:57.744Z,268.21053
2023-03-01T18:34:59.200Z,269.92593
2023-03-01T18:40:00.976Z,286.22222
2023-03-01T18:45:02.526Z,284.33149
2023-03-01T18:50:04.036Z,288.13408
2023-03-01T18:55:05.573Z,284.33149
2023-03-01T19:00:07.051Z,278.78261
2023-03-01T19:05:08.528Z,284.33149
2023-03-01T19:10:10.257Z,290.06742
2023-03-01T19:15:11.673Z,294
2023-03-01T19:20:13.189Z,302.13953
2023-03-01T19:25:14.891Z,290.06742
2023-03-01T19:30:16.359Z,302.13953
2023-03-01T19:35:18.003Z,302.13953
2023-03-01T19:40:19.579Z,310.66667
2023-03-01T19:45:31.856Z,306.35294
2023-03-01T19:50:34.823Z,308.49704
2023-03-01T19:55:36.310Z,304.23392
2023-03-01T20:00:37.872Z,296
2023-03-01T20:05:39.365Z,294
2023-03-01T20:10:41.014Z,312.86228
2023-03-01T20:15:42.624Z,294
2023-03-01T20:20:44.211Z,302.13953
2023-03-01T20:25:45.720Z,310.66667
2023-03-01T20:30:47.251Z,298.02299
2023-03-01T20:35:48.755Z,308.49704
2023-03-01T20:40:50.301Z,300.06936
2023-03-01T20:45:51.849Z,286.22222
2023-03-01T20:50:53.363Z,284.33149
2023-03-01T20:55:54.825Z,290.06742
2023-03-01T21:00:56.305Z,288.13408
2023-03-01T21:05:57.923Z,284.33149
2023-03-01T21:10:59.407Z,282.46154
2023-03-01T21:16:01.199Z,271.65957
2023-03-01T21:21:02.712Z,258.28571
2023-03-01T21:26:04.196Z,245.96078
2023-03-01T21:31:05.713Z,244.4878
2023-03-01T21:36:07.217Z,238.73684
2023-03-01T21:41:08.838Z,250.46766
2023-03-01T21:46:10.424Z,255.11111
2023-03-01T21:51:11.983Z,269.92593
2023-03-01T21:56:13.436Z,271.65957
2023-03-01T22:01:15.066Z,264.83333
2023-03-01T22:06:17.651Z,252
2023-03-01T22:11:19.720Z,255.11111
2023-03-01T22:16:21.342Z,266.51309
2023-03-01T22:21:22.990Z,264.83333
2023-03-01T22:26:24.668Z,263.17098
2023-03-01T22:31:26.205Z,259.89744
2023-03-01T22:36:27.805Z,266.51309
2023-03-01T22:41:29.405Z,266.51309
2023-03-01T22:46:31.326Z,264.83333
2023-03-01T22:51:32.978Z,258.28571
2023-03-01T22:56:34.773Z,259.89744
2023-03-01T23:01:36.445Z,247.44828
2023-03-01T23:06:37.928Z,238.73684
2023-03-01T23:11:39.645Z,229.18519
2023-03-01T23:16:41.193Z,222.73303
2023-03-01T23:21:42.726Z,219
2023-03-01T23:26:44.288Z,216.56637
2023-03-01T23:31:45.733Z,211.82609
2023-03-01T23:36:47.202Z,208.37768
2023-03-01T23:41:48.713Z,207.24786
2023-03-01T23:46:50.278Z,201.74059
2023-03-01T23:51:51.809Z,198.54545
2023-03-01T23:56:53.430Z,197.49794
